Search for airport 
image banner adimage banner adimage banner ad
image banner ad

32CA - Stone Airstrip

Located in Lemoore, United States

ICAO - 32CA, IATA -

Data provided by Airmate  

General information

Coordinates: N36°19'60" W119°49'30"
Elevation is 220 feet MSL.
Magnetic variation is 15° East
View others Airports in California

Operational data

Special qualification required
Current time UTC:
Current local time:
Weather at : KNLC - Lemoore Nas (Reeves Fld) ( 11 km )
METAR: KNLC 210856Z AUTO 33008KT 10SM CLR 23/06 A2979 RMK AO2 SLP084 T02280061 51004
TAF: TAF KNLC 2107/2207 31009KT 9999 SKC QNH2977INS FM212300 24012KT 9999 SKC QNH2978INS AUTOMATED SENSOR METWATCH 2007 TIL 2014 T19/2112Z T39/2122Z FS30178
View NOTAMs / SUP AIP / TFR affecting this airport [VIEW]
Communications frequencies: [VIEW]

Runways:

RWY identifierQFULength (ft)Width (ft)SurfaceLDA (ft)
16254030ASPH
34254030ASPH

Airport contact information

Address: Lemoore United States

Satellite view of 32CA